Summerfield, Texas
Current Conditions -  °F | °C
As of 6:15 PM on Thursday 27 Nov 2014 (Local Time) from KHRX Reporting Station
Clear Clear  
Wind Chill: 52°   Ceiling: Unl
Heat Index: 52°   Visibility: 10mi
Dew Point: 32°   Wind: 12mph
Humidity: 46%   Direction: 150°SSE
Pressure: 30.24"   Gusts: NA
Location:  34.74°N, 102.51°W
Report Text: KHRX 280015Z AUTO 15010KT 10SM CLR 11/00 A3024 RMK AO2 T01120000
Loading
Personal Weather Stations






























Interactive Weather Map New forecast layout! Learn more

10-Day Weather Forecast

Advertisements
Track Severe Weather on mobile